CheckWX is a tool to help pilots better visualize weather data.  It is not intended as a substitute for an official pre-flight weather briefing.

14:03:35 UTC

EKYT METAR
Aalborg Airport
Aalborg, Denmark
Current

14 mins ago

EKYT 251350Z AUTO 10012KT 9999 NCD 24/16 Q1023
Observed
Aug-25 @ 13:50 UTC
Wind
  • 100° at 12 KTS
Visibility
10,000+ meters
Flight Rules
VFR
Cloud Levels
  • Clear skies
Temperature
24°C / 75°F
Dewpoint
16°C / 61°F
Humidity
61%
Altimeter
30.21" Hg
Pressure
1022.92 hPa
Previous

44 mins ago

EKYT 251320Z AUTO 10011KT 9999 NCD 24/16 Q1023
Observed
Aug-25 @ 13:20 UTC
Wind
  • 100° at 11 KTS
Visibility
10,000+ meters
Flight Rules
VFR
Cloud Levels
  • Clear skies
Temperature
24°C / 75°F
Dewpoint
16°C / 61°F
Humidity
61%
Altimeter
30.21" Hg
Pressure
1022.92 hPa
Previous

1 hour ago

EKYT 251250Z AUTO 10010KT 9999 NCD 24/17 Q1023
Observed
Aug-25 @ 12:50 UTC
Wind
  • 100° at 10 KTS
Visibility
10,000+ meters
Flight Rules
VFR
Cloud Levels
  • Clear skies
Temperature
24°C / 75°F
Dewpoint
17°C / 63°F
Humidity
65%
Altimeter
30.21" Hg
Pressure
1022.92 hPa